createdAt,value
2019-02-19T00:01:21.912Z,1.90
2019-02-19T00:03:50.336Z,1.70
2019-02-19T00:08:46.856Z,1.60
2019-02-19T00:13:43.768Z,1.70
2019-02-19T00:16:12.181Z,1.80
2019-02-19T00:18:40.607Z,1.80
2019-02-19T00:21:09.024Z,1.80
2019-02-19T00:23:37.453Z,1.80
2019-02-19T00:28:44.908Z,1.90
2019-02-19T00:31:13.328Z,1.90
2019-02-19T00:33:41.759Z,1.70
2019-02-19T00:36:10.183Z,1.60
2019-02-19T00:38:38.621Z,1.70
2019-02-19T00:41:07.023Z,1.70
2019-02-19T00:43:35.452Z,1.70
2019-02-19T00:46:03.871Z,1.80
2019-02-19T00:48:32.295Z,1.70
2019-02-19T00:51:00.721Z,1.80
2019-02-19T00:53:29.506Z,1.80
2019-02-19T00:58:26.069Z,1.90
2019-02-19T01:00:54.488Z,1.70
2019-02-19T01:03:23.476Z,1.50
2019-02-19T01:05:52.043Z,1.50
2019-02-19T01:08:20.478Z,1.40
2019-02-19T01:10:49.148Z,1.40
2019-02-19T01:13:17.576Z,1.50
2019-02-19T01:15:46.013Z,1.50
2019-02-19T01:18:14.431Z,1.50
2019-02-19T01:20:42.865Z,1.60
2019-02-19T01:23:11.285Z,1.60
2019-02-19T01:25:39.701Z,1.60
2019-02-19T01:28:08.128Z,1.60
2019-02-19T01:30:36.536Z,1.60
2019-02-19T01:33:04.964Z,1.60
2019-02-19T01:35:33.410Z,1.60
2019-02-19T01:38:01.887Z,1.70
2019-02-19T01:40:30.300Z,1.70
2019-02-19T01:42:58.731Z,1.60
2019-02-19T01:45:33.846Z,1.60
2019-02-19T01:47:57.297Z,1.60
2019-02-19T01:50:25.986Z,1.60
2019-02-19T01:52:54.428Z,1.50
2019-02-19T01:55:22.840Z,1.50
2019-02-19T01:57:51.285Z,1.50
2019-02-19T02:00:19.768Z,1.50
2019-02-19T02:02:48.194Z,1.50
2019-02-19T02:05:16.624Z,1.50
2019-02-19T02:07:45.042Z,1.40
2019-02-19T02:10:13.469Z,1.40
2019-02-19T02:12:41.888Z,1.40
2019-02-19T02:15:10.396Z,1.40
2019-02-19T02:17:38.816Z,1.40
2019-02-19T02:20:08.189Z,1.40
2019-02-19T02:22:36.604Z,1.40
2019-02-19T02:25:05.100Z,1.40
2019-02-19T02:27:33.534Z,1.30
2019-02-19T02:30:01.963Z,1.30
2019-02-19T02:32:30.379Z,1.30
2019-02-19T02:34:58.813Z,1.30
2019-02-19T02:37:27.234Z,1.20
2019-02-19T02:39:55.652Z,1.20
2019-02-19T02:42:24.074Z,1.20
2019-02-19T02:44:52.504Z,1.20
2019-02-19T02:47:20.913Z,1.20
2019-02-19T02:49:49.349Z,1.20
2019-02-19T02:52:17.766Z,1.20
2019-02-19T02:54:46.198Z,1.20
2019-02-19T02:57:14.613Z,1.30
2019-02-19T02:59:43.036Z,1.30
2019-02-19T03:02:11.459Z,1.30
2019-02-19T03:04:39.876Z,1.30
2019-02-19T03:07:09.942Z,1.30
2019-02-19T03:09:38.375Z,1.30
2019-02-19T03:12:06.794Z,1.20
2019-02-19T03:14:35.221Z,1.20
2019-02-19T03:17:03.636Z,1.10
2019-02-19T03:19:32.064Z,1.20
2019-02-19T03:22:00.488Z,1.10
2019-02-19T03:24:28.922Z,1.10
2019-02-19T03:26:57.336Z,1.00
2019-02-19T03:29:25.769Z,1.00
2019-02-19T03:31:54.185Z,0.90
2019-02-19T03:34:22.625Z,0.90
2019-02-19T03:36:51.042Z,0.90
2019-02-19T03:39:19.477Z,0.90
2019-02-19T03:41:48.061Z,0.80
2019-02-19T03:44:16.484Z,0.80
2019-02-19T03:46:44.908Z,0.80
2019-02-19T03:49:13.405Z,0.80
2019-02-19T03:51:41.828Z,0.90
2019-02-19T03:54:10.250Z,1.00
2019-02-19T03:56:38.738Z,1.00
2019-02-19T03:59:07.153Z,1.10
2019-02-19T04:01:35.644Z,1.10
2019-02-19T04:04:04.067Z,1.10
2019-02-19T04:06:32.524Z,1.20
2019-02-19T04:09:00.992Z,1.20
2019-02-19T04:11:29.434Z,1.20
2019-02-19T04:13:57.921Z,1.20
2019-02-19T04:16:26.352Z,1.20
2019-02-19T04:18:54.778Z,1.20
2019-02-19T04:21:23.206Z,1.20
2019-02-19T04:23:51.656Z,1.20
2019-02-19T04:26:20.095Z,1.20
2019-02-19T04:28:48.505Z,1.30
2019-02-19T04:33:45.048Z,1.20
2019-02-19T04:36:13.527Z,1.20
2019-02-19T04:38:41.988Z,1.20
2019-02-19T04:41:10.478Z,1.20
2019-02-19T04:43:38.892Z,1.10
2019-02-19T04:46:07.330Z,1.10
2019-02-19T04:48:35.800Z,1.10
2019-02-19T04:51:04.204Z,1.10
2019-02-19T04:53:32.623Z,1.10
2019-02-19T04:56:01.056Z,1.10
2019-02-19T04:58:29.462Z,0.90
2019-02-19T05:00:57.885Z,1.00
2019-02-19T05:03:26.308Z,0.90
2019-02-19T05:05:54.732Z,0.90
2019-02-19T05:08:23.157Z,0.90
2019-02-19T05:10:51.576Z,0.90
2019-02-19T05:13:19.997Z,0.80
2019-02-19T05:15:48.416Z,0.80
2019-02-19T05:18:16.832Z,0.60
2019-02-19T05:20:45.266Z,0.60
2019-02-19T05:23:13.685Z,0.60
2019-02-19T05:25:42.119Z,0.70
2019-02-19T05:28:10.524Z,0.70
2019-02-19T05:30:38.957Z,0.60
2019-02-19T05:33:07.383Z,0.60
2019-02-19T05:35:35.794Z,0.60
2019-02-19T05:38:04.225Z,0.60
2019-02-19T05:40:32.641Z,0.60
2019-02-19T05:43:01.576Z,0.60
2019-02-19T05:45:30.190Z,0.60
2019-02-19T05:47:58.654Z,0.50
2019-02-19T05:50:27.078Z,0.40
2019-02-19T05:52:55.516Z,0.50
2019-02-19T05:57:52.036Z,0.50
2019-02-19T06:00:20.448Z,0.60
2019-02-19T06:02:48.868Z,0.60
2019-02-19T06:05:17.309Z,0.60
2019-02-19T06:07:45.736Z,0.70
2019-02-19T06:10:26.221Z,0.90
2019-02-19T06:12:54.644Z,0.90
2019-02-19T06:17:51.175Z,1.20
2019-02-19T06:20:19.588Z,1.30
2019-02-19T06:22:48.009Z,1.40
2019-02-19T06:25:16.443Z,1.40
2019-02-19T06:27:44.873Z,1.40
2019-02-19T06:30:13.848Z,1.50
2019-02-19T06:32:42.269Z,1.60
2019-02-19T06:35:10.916Z,1.70
2019-02-19T06:37:39.352Z,1.70
2019-02-19T06:40:10.843Z,1.70
2019-02-19T06:42:39.269Z,1.70
2019-02-19T06:45:07.821Z,1.80
2019-02-19T06:47:36.246Z,1.80
2019-02-19T06:50:05.539Z,1.90
2019-02-19T06:52:33.996Z,2.00
2019-02-19T06:55:02.412Z,2.00
2019-02-19T06:57:30.849Z,2.00
2019-02-19T06:59:59.263Z,2.10
2019-02-19T07:02:29.336Z,2.10
2019-02-19T07:04:58.441Z,2.10
2019-02-19T07:07:26.939Z,2.20
2019-02-19T07:09:55.393Z,2.20
2019-02-19T07:12:23.817Z,2.20
2019-02-19T07:14:52.237Z,2.30
2019-02-19T07:17:20.687Z,2.30
2019-02-19T07:19:49.080Z,2.30
2019-02-19T07:22:17.522Z,2.40
2019-02-19T07:24:45.944Z,2.50
2019-02-19T07:27:14.364Z,2.50
2019-02-19T07:29:42.871Z,2.50
2019-02-19T07:32:11.558Z,2.70
2019-02-19T07:34:41.017Z,2.70
2019-02-19T07:37:09.571Z,2.70
2019-02-19T07:39:37.991Z,2.80
2019-02-19T07:42:06.430Z,2.90
2019-02-19T07:44:34.850Z,3.00
2019-02-19T07:47:24.809Z,3.10
2019-02-19T07:49:52.995Z,3.10
2019-02-19T07:52:21.406Z,3.20
2019-02-19T07:54:50.092Z,3.30
2019-02-19T07:57:18.508Z,3.40
2019-02-19T07:59:46.933Z,3.40
2019-02-19T08:02:15.384Z,3.50
2019-02-19T08:04:43.862Z,3.60
2019-02-19T08:07:12.273Z,3.70
2019-02-19T08:09:40.705Z,3.80
2019-02-19T08:12:09.112Z,3.90
2019-02-19T08:14:37.538Z,4.10
2019-02-19T08:17:05.953Z,4.20
2019-02-19T08:19:34.404Z,4.30
2019-02-19T08:22:02.809Z,4.50
2019-02-19T08:24:31.232Z,4.60
2019-02-19T08:26:59.653Z,4.70
2019-02-19T08:29:28.080Z,4.80
2019-02-19T08:31:56.509Z,4.90
2019-02-19T08:34:25.012Z,5.00
2019-02-19T08:36:53.417Z,5.10
2019-02-19T08:39:21.847Z,5.20
2019-02-19T08:41:50.256Z,5.20
2019-02-19T08:44:18.672Z,5.30
2019-02-19T08:46:47.121Z,5.30
2019-02-19T08:49:15.546Z,5.40
2019-02-19T08:51:43.953Z,5.50
2019-02-19T08:54:12.373Z,5.60
2019-02-19T08:56:40.785Z,5.60
2019-02-19T08:59:09.200Z,5.70
2019-02-19T09:01:37.613Z,5.70
2019-02-19T09:04:06.045Z,5.70
2019-02-19T09:06:34.453Z,5.80
2019-02-19T09:09:02.877Z,5.80
2019-02-19T09:11:43.729Z,5.90
2019-02-19T09:14:24.621Z,6.00
2019-02-19T09:16:53.032Z,6.20
2019-02-19T09:19:21.449Z,6.40
2019-02-19T09:21:49.854Z,6.60
2019-02-19T09:24:18.271Z,6.80
2019-02-19T09:26:46.688Z,7.00
2019-02-19T09:29:15.096Z,7.20
2019-02-19T09:31:43.511Z,7.40
2019-02-19T09:34:11.931Z,7.50
2019-02-19T09:36:40.345Z,7.70
2019-02-19T09:39:08.770Z,7.80
2019-02-19T09:41:37.177Z,8.00
2019-02-19T09:44:05.612Z,8.10
2019-02-19T09:46:34.017Z,8.20
2019-02-19T09:49:02.436Z,8.40
2019-02-19T09:51:30.848Z,8.50
2019-02-19T09:53:59.265Z,8.50
2019-02-19T09:56:27.680Z,8.50
2019-02-19T09:58:56.080Z,8.60
2019-02-19T10:01:24.496Z,8.60
2019-02-19T10:03:52.917Z,8.70
2019-02-19T10:06:21.339Z,8.70
2019-02-19T10:08:49.736Z,8.70
2019-02-19T10:11:18.157Z,8.70
2019-02-19T10:13:46.572Z,8.80
2019-02-19T10:16:14.995Z,8.80
2019-02-19T10:18:43.406Z,8.90
2019-02-19T10:21:11.824Z,9.00
2019-02-19T10:23:40.277Z,9.10
2019-02-19T10:26:08.725Z,9.10
2019-02-19T10:28:37.144Z,9.10
2019-02-19T10:31:05.562Z,9.20
2019-02-19T10:33:33.976Z,9.20
2019-02-19T10:36:02.692Z,9.30
2019-02-19T10:38:31.100Z,9.40
2019-02-19T10:40:59.525Z,9.50
2019-02-19T10:43:27.937Z,9.60
2019-02-19T10:45:56.354Z,9.70
2019-02-19T10:48:24.755Z,9.90
2019-02-19T10:50:53.465Z,10.00
2019-02-19T10:53:21.878Z,10.10
2019-02-19T10:55:50.296Z,10.20
2019-02-19T10:58:22.861Z,10.20
2019-02-19T11:00:48.864Z,10.10
2019-02-19T11:03:17.282Z,10.00
2019-02-19T11:05:45.746Z,9.90
2019-02-19T11:08:14.144Z,9.90
2019-02-19T11:10:42.569Z,9.90
2019-02-19T11:13:10.976Z,10.00
2019-02-19T11:15:39.713Z,10.10
2019-02-19T11:18:08.125Z,10.20
2019-02-19T11:20:36.546Z,10.30
2019-02-19T11:23:04.959Z,10.40
2019-02-19T11:25:33.380Z,10.50
2019-02-19T11:28:01.796Z,10.60
2019-02-19T11:30:30.264Z,10.60
2019-02-19T11:32:58.733Z,10.60
2019-02-19T11:35:27.167Z,10.70
2019-02-19T11:37:55.576Z,10.90
2019-02-19T11:40:24.007Z,11.00
2019-02-19T11:42:52.437Z,11.10
2019-02-19T11:45:20.887Z,11.20
2019-02-19T11:47:49.373Z,11.30
2019-02-19T11:50:17.812Z,11.30
2019-02-19T11:52:46.237Z,11.20
2019-02-19T11:55:17.069Z,11.20
2019-02-19T11:57:45.747Z,11.20
2019-02-19T12:00:17.244Z,11.30
2019-02-19T12:02:45.665Z,11.40
2019-02-19T12:05:14.076Z,11.40
2019-02-19T12:07:42.501Z,11.40
2019-02-19T12:10:12.036Z,11.50
2019-02-19T12:12:40.901Z,11.30
2019-02-19T12:15:11.306Z,11.40
2019-02-19T12:17:39.760Z,11.40
2019-02-19T12:20:13.180Z,11.50
2019-02-19T12:22:41.631Z,11.40
2019-02-19T12:25:10.579Z,11.30
2019-02-19T12:27:39.006Z,11.30
2019-02-19T12:30:18.497Z,11.10
2019-02-19T12:32:46.931Z,11.00
2019-02-19T12:35:15.341Z,10.80
2019-02-19T12:37:43.796Z,10.80
2019-02-19T12:40:13.343Z,10.80
2019-02-19T12:42:41.773Z,10.80
2019-02-19T12:45:12.024Z,10.70
2019-02-19T12:47:40.482Z,10.60
2019-02-19T12:50:13.820Z,10.50
2019-02-19T12:52:42.259Z,10.50
2019-02-19T12:55:11.329Z,10.40
2019-02-19T12:57:39.827Z,10.40
2019-02-19T13:00:19.222Z,10.30
2019-02-19T13:02:47.641Z,10.30
2019-02-19T13:05:16.594Z,10.20
2019-02-19T13:07:46.903Z,10.20
2019-02-19T13:10:15.167Z,10.10
2019-02-19T13:12:43.593Z,10.10
2019-02-19T13:15:20.788Z,9.90
2019-02-19T13:17:49.207Z,9.90
2019-02-19T13:20:17.953Z,9.80
2019-02-19T13:22:46.365Z,9.70
2019-02-19T13:25:14.772Z,9.70
2019-02-19T13:27:43.196Z,9.70
2019-02-19T13:30:16.808Z,9.80
2019-02-19T13:32:45.229Z,9.90
2019-02-19T13:35:14.192Z,10.10
2019-02-19T13:37:42.692Z,10.00
2019-02-19T13:40:13.459Z,9.90
2019-02-19T13:42:41.901Z,9.80
2019-02-19T13:45:13.130Z,9.70
2019-02-19T13:47:41.536Z,9.60
2019-02-19T13:50:13.143Z,9.50
2019-02-19T13:52:43.194Z,9.40
2019-02-19T13:55:13.251Z,9.40
2019-02-19T13:57:41.664Z,9.40
2019-02-19T14:00:11.789Z,9.40
2019-02-19T14:02:40.217Z,9.50
2019-02-19T14:05:08.984Z,9.40
2019-02-19T14:07:37.455Z,9.20
2019-02-19T14:10:09.013Z,9.10
2019-02-19T14:12:37.439Z,9.10
2019-02-19T14:15:10.239Z,9.10
2019-02-19T14:17:38.674Z,9.00
2019-02-19T14:20:09.689Z,8.90
2019-02-19T14:22:55.992Z,8.90
2019-02-19T14:25:26.033Z,8.90
2019-02-19T14:27:56.090Z,8.90
2019-02-19T14:30:32.146Z,8.90
2019-02-19T14:33:08.004Z,8.90
2019-02-19T14:35:54.510Z,8.90
2019-02-19T14:38:24.827Z,8.90
2019-02-19T14:40:57.840Z,8.90
2019-02-19T14:43:36.660Z,8.90
2019-02-19T14:46:18.818Z,8.90
2019-02-19T14:48:51.364Z,8.90
2019-02-19T14:51:30.677Z,8.90
2019-02-19T14:54:18.874Z,8.90
2019-02-19T14:56:48.937Z,8.90
2019-02-19T14:59:35.487Z,8.90
2019-02-19T15:02:08.329Z,8.80
2019-02-19T15:04:47.665Z,8.80
2019-02-19T15:07:32.744Z,8.80
2019-02-19T15:10:05.492Z,8.80
2019-02-19T15:12:35.545Z,8.80
2019-02-19T15:15:15.824Z,8.80
2019-02-19T15:17:48.716Z,8.80
2019-02-19T15:20:18.784Z,8.80
2019-02-19T15:22:55.135Z,8.60
2019-02-19T15:25:28.145Z,8.50
2019-02-19T15:27:58.197Z,8.50
2019-02-19T15:30:30.649Z,8.40
2019-02-19T15:33:12.432Z,8.40
2019-02-19T15:35:59.052Z,8.30
2019-02-19T15:39:04.837Z,8.30
2019-02-19T15:41:37.807Z,8.20
2019-02-19T15:44:26.811Z,8.20
2019-02-19T15:47:08.845Z,8.20
2019-02-19T15:49:49.514Z,8.10
2019-02-19T15:52:24.111Z,8.10
2019-02-19T15:54:59.893Z,8.10
2019-02-19T15:57:33.495Z,8.00
2019-02-19T16:00:03.553Z,8.00
2019-02-19T16:02:35.633Z,8.00
2019-02-19T16:05:13.776Z,8.00
2019-02-19T16:07:47.777Z,8.00
2019-02-19T16:10:33.957Z,8.00
2019-02-19T16:13:04.429Z,7.90
2019-02-19T16:15:37.887Z,7.90
2019-02-19T16:18:24.423Z,7.90
2019-02-19T16:21:14.186Z,7.90
2019-02-19T16:23:53.390Z,7.80
2019-02-19T16:26:38.897Z,7.80
2019-02-19T16:29:15.706Z,7.80
2019-02-19T16:31:46.618Z,7.70
2019-02-19T16:34:23.801Z,7.70
2019-02-19T16:36:55.945Z,7.70
2019-02-19T16:39:28.849Z,7.60
2019-02-19T16:42:15.340Z,7.60
2019-02-19T16:44:54.653Z,7.60
2019-02-19T16:47:25.529Z,7.50
2019-02-19T16:50:07.201Z,7.50
2019-02-19T16:52:30.842Z,7.50
2019-02-19T16:55:03.637Z,7.40
2019-02-19T16:57:34.089Z,7.40
2019-02-19T17:00:19.243Z,7.40
2019-02-19T17:03:08.654Z,7.30
2019-02-19T17:05:42.537Z,7.30
2019-02-19T17:08:12.688Z,7.30
2019-02-19T17:10:58.237Z,7.30
2019-02-19T17:13:44.469Z,7.30
2019-02-19T17:16:14.539Z,7.30
2019-02-19T17:18:44.651Z,7.20
2019-02-19T17:21:14.705Z,7.20
2019-02-19T17:23:44.759Z,7.20
2019-02-19T17:26:27.064Z,7.20
2019-02-19T17:28:57.117Z,7.10
2019-02-19T17:31:42.259Z,7.10
2019-02-19T17:34:18.480Z,7.10
2019-02-19T17:36:51.604Z,7.00
2019-02-19T17:39:33.677Z,7.00
2019-02-19T17:42:03.731Z,7.00
2019-02-19T17:44:45.841Z,7.00
2019-02-19T17:47:18.779Z,7.00
2019-02-19T17:49:48.821Z,7.00
2019-02-19T17:52:24.616Z,7.00
2019-02-19T17:55:00.413Z,7.00
2019-02-19T17:57:45.505Z,7.00
2019-02-19T18:00:18.405Z,7.00
2019-02-19T18:02:48.836Z,7.00
2019-02-19T18:05:18.893Z,7.00
2019-02-19T18:07:54.884Z,7.00
2019-02-19T18:10:24.932Z,7.00
2019-02-19T18:12:57.672Z,7.00
2019-02-19T18:15:36.472Z,7.00
2019-02-19T18:18:15.025Z,7.00
2019-02-19T18:20:47.638Z,6.90
2019-02-19T18:23:13.593Z,6.90
2019-02-19T18:25:42.007Z,6.80
2019-02-19T18:28:10.429Z,6.80
2019-02-19T18:30:38.908Z,6.80
2019-02-19T18:33:07.341Z,6.80
2019-02-19T18:35:35.759Z,6.80
2019-02-19T18:38:04.185Z,6.80
2019-02-19T18:40:32.596Z,6.80
2019-02-19T18:43:01.328Z,6.80
2019-02-19T18:45:30.017Z,6.70
2019-02-19T18:47:58.434Z,6.70
2019-02-19T18:50:26.840Z,6.70
2019-02-19T18:52:55.265Z,6.60
2019-02-19T18:55:23.673Z,6.60
2019-02-19T19:00:20.203Z,6.50
2019-02-19T19:05:16.773Z,6.50
2019-02-19T19:07:45.197Z,6.50
2019-02-19T19:10:13.608Z,6.40
2019-02-19T19:12:42.036Z,6.30
2019-02-19T19:15:10.792Z,6.30
2019-02-19T19:20:10.009Z,6.10
2019-02-19T19:22:38.438Z,6.00
2019-02-19T19:25:07.592Z,5.90
2019-02-19T19:30:12.573Z,5.80
2019-02-19T19:35:10.529Z,5.70
2019-02-19T19:37:39.091Z,5.70
2019-02-19T19:40:10.881Z,5.70
2019-02-19T19:47:56.444Z,5.30
2019-02-19T19:50:24.876Z,5.30
2019-02-19T19:52:53.308Z,5.30
2019-02-19T20:02:46.345Z,4.80
2019-02-19T20:05:14.773Z,4.70
2019-02-19T20:07:43.184Z,4.60
2019-02-19T20:10:13.053Z,4.50
2019-02-19T20:12:41.893Z,4.50
2019-02-19T20:15:11.965Z,4.30
2019-02-19T20:17:40.379Z,4.20
2019-02-19T20:32:38.753Z,3.70
2019-02-19T20:35:09.597Z,3.60
2019-02-19T20:37:38.176Z,3.70
2019-02-19T20:40:11.290Z,3.70
2019-02-19T20:42:59.072Z,3.60
2019-02-19T20:45:27.488Z,3.40
2019-02-19T20:50:24.087Z,3.30
2019-02-19T20:55:20.639Z,3.20
2019-02-19T20:57:49.052Z,3.10
2019-02-19T21:00:18.150Z,3.00
2019-02-19T21:02:46.644Z,3.00
2019-02-19T21:05:15.072Z,3.00
2019-02-19T21:07:43.552Z,3.00
2019-02-19T21:12:41.392Z,2.70
2019-02-19T21:15:10.148Z,2.50
2019-02-19T21:17:38.576Z,2.50
2019-02-19T21:20:09.439Z,2.40
2019-02-19T21:27:35.216Z,2.40
2019-02-19T21:35:20.708Z,2.00
2019-02-19T21:40:17.224Z,1.80
2019-02-19T21:42:45.653Z,1.80
2019-02-19T21:47:42.978Z,1.70
2019-02-19T21:52:40.332Z,1.80
2019-02-19T21:55:10.438Z,1.80
2019-02-19T21:57:38.898Z,1.70
2019-02-19T22:00:32.823Z,1.60
2019-02-19T22:03:01.305Z,1.60
2019-02-19T22:05:29.799Z,1.70
2019-02-19T22:10:26.304Z,1.70
2019-02-19T22:12:54.730Z,1.80
2019-02-19T22:23:08.822Z,1.60
2019-02-19T22:25:37.247Z,1.60
2019-02-19T22:30:34.534Z,1.40
2019-02-19T22:33:02.965Z,1.50
2019-02-19T22:35:31.425Z,1.40
2019-02-19T22:37:59.856Z,1.40
2019-02-19T22:40:28.327Z,1.40
2019-02-19T22:47:53.627Z,1.40
2019-02-19T22:50:22.284Z,1.50
2019-02-19T22:52:50.712Z,1.40
2019-02-19T22:55:35.734Z,1.40
2019-02-19T23:00:49.108Z,1.40
2019-02-19T23:03:19.173Z,1.40
2019-02-19T23:08:15.688Z,1.20
2019-02-19T23:10:44.118Z,1.10
2019-02-19T23:13:12.539Z,1.10
2019-02-19T23:18:09.128Z,1.00
2019-02-19T23:28:02.739Z,0.90
2019-02-19T23:32:59.433Z,0.80
2019-02-19T23:38:19.773Z,0.80
2019-02-19T23:40:48.195Z,0.70
2019-02-19T23:45:44.709Z,0.70
2019-02-19T23:48:13.124Z,0.70
2019-02-19T23:55:39.309Z,0.60
2019-02-19T23:58:07.727Z,0.60
